Time;durP1;ratioP1;P1;durP2;ratioP2;P2;SDS_P1;SDS_P2;PMS_P1;PMS_P2;Temp;Humidity;BMP_temperature;BMP_pressure;BME280_temperature;BME280_humidity;BME280_pressure;Samples;Min_cycle;Max_cycle;Signal;HPM_P1;HPM_P2
2023/11/26 00:01:41;;;;;;;3.08;2.70;;;;;;;20.50;28.40;100268.97;4402519;29;22844;-66
2023/11/26 00:03:51;;;;;;;2.53;2.13;;;;;;;20.51;28.30;100272.69;4402433;29;20056;-66
2023/11/26 00:06:05;;;;;;;2.42;2.10;;;;;;;20.50;28.39;100273.91;4402966;29;20136;-66
2023/11/26 00:08:15;;;;;;;2.38;2.00;;;;;;;20.50;28.42;100274.72;4401422;29;20606;-66
2023/11/26 00:10:26;;;;;;;2.60;1.70;;;;;;;20.51;27.99;100278.41;4402011;29;20052;-66
2023/11/26 00:12:36;;;;;;;2.08;1.90;;;;;;;20.49;28.11;100280.81;4402234;29;20040;-66
2023/11/26 00:14:47;;;;;;;1.98;1.77;;;;;;;20.49;28.26;100272.22;4401451;29;20123;-66
2023/11/26 00:16:57;;;;;;;2.08;1.88;;;;;;;20.48;28.10;100276.31;4402253;29;20105;-66
2023/11/26 00:19:08;;;;;;;2.88;2.00;;;;;;;20.50;28.15;100279.63;4384511;29;20105;-66
2023/11/26 00:21:20;;;;;;;2.22;1.70;;;;;;;20.48;28.06;100284.91;4403549;29;20044;-66
2023/11/26 00:23:31;;;;;;;2.72;2.05;;;;;;;20.49;28.07;100283.69;4402174;29;21599;-66
2023/11/26 00:25:41;;;;;;;2.03;1.70;;;;;;;20.48;27.88;100282.03;4402186;29;20076;-66
2023/11/26 00:27:52;;;;;;;1.83;1.63;;;;;;;20.48;27.72;100277.13;4402442;29;20113;-66
2023/11/26 00:30:04;;;;;;;2.00;1.80;;;;;;;20.48;27.80;100284.91;4402782;29;20045;-66
2023/11/26 00:32:16;;;;;;;2.10;1.80;;;;;;;20.48;27.90;100282.03;4402060;29;20861;-66
2023/11/26 00:34:27;;;;;;;2.28;2.05;;;;;;;20.47;27.98;100289.78;4401899;29;20037;-66
2023/11/26 00:36:37;;;;;;;1.85;1.73;;;;;;;20.47;27.99;100288.97;4401540;29;20048;-66
2023/11/26 00:38:48;;;;;;;2.70;1.75;;;;;;;20.48;28.03;100290.63;4384979;29;20105;-66
2023/11/26 00:40:58;;;;;;;2.15;1.92;;;;;;;20.46;27.88;100285.28;4402928;29;20048;-66
2023/11/26 00:43:09;;;;;;;2.00;1.73;;;;;;;20.48;27.91;100290.63;4400153;29;20025;-66
2023/11/26 00:45:19;;;;;;;1.92;1.73;;;;;;;20.49;27.78;100292.28;4402119;29;20047;-66
2023/11/26 00:47:30;;;;;;;2.35;2.03;;;;;;;20.48;27.98;100296.38;4386969;29;20037;-66
2023/11/26 00:49:41;;;;;;;2.53;2.05;;;;;;;20.48;27.79;100302.94;4406800;29;20067;-66
2023/11/26 00:51:52;;;;;;;1.98;1.80;;;;;;;20.48;27.97;100302.94;4403073;29;20032;-66
2023/11/26 00:54:05;;;;;;;2.22;2.03;;;;;;;20.45;27.64;100303.69;4405182;29;20524;-66
2023/11/26 00:56:16;;;;;;;1.80;1.70;;;;;;;20.47;27.74;100298.41;4389254;29;20037;-66
2023/11/26 00:58:27;;;;;;;2.00;1.75;;;;;;;20.47;27.95;100301.25;4405847;29;20737;-66
2023/11/26 01:00:41;;;;;;;1.90;1.70;;;;;;;20.46;27.82;100298.78;4404134;29;20092;-66
2023/11/26 01:02:51;;;;;;;1.88;1.60;;;;;;;20.45;27.80;100303.69;4404928;29;21287;-66
2023/11/26 01:05:03;;;;;;;1.88;1.67;;;;;;;20.45;27.95;100303.69;4388054;29;20045;-66
2023/11/26 01:07:14;;;;;;;1.70;1.60;;;;;;;20.46;27.99;100318.84;4404409;29;20048;-66
2023/11/26 01:09:24;;;;;;;2.05;1.58;;;;;;;20.47;28.12;100314.78;4405775;29;20167;-66
2023/11/26 01:11:37;;;;;;;1.70;1.60;;;;;;;20.47;28.16;100317.66;4402981;29;20041;-66
2023/11/26 01:13:47;;;;;;;1.88;1.70;;;;;;;20.47;28.03;100317.66;4404088;29;20595;-66
2023/11/26 01:15:58;;;;;;;1.95;1.75;;;;;;;20.46;27.99;100321.69;4387560;29;20079;-66
2023/11/26 01:18:08;;;;;;;1.70;1.60;;;;;;;20.47;28.08;100324.19;4387793;29;20048;-66
2023/11/26 01:20:18;;;;;;;2.15;1.80;;;;;;;20.46;28.16;100324.56;4390565;29;20081;-66
2023/11/26 01:22:29;;;;;;;1.90;1.67;;;;;;;20.45;28.48;100329.50;4405291;29;20542;-66
2023/11/26 01:24:39;;;;;;;1.60;1.50;;;;;;;20.44;28.28;100336.41;4404207;29;20513;-66
2023/11/26 01:26:50;;;;;;;1.88;1.70;;;;;;;20.45;28.31;100332.38;4388284;29;21184;-66
2023/11/26 01:29:01;;;;;;;1.98;1.70;;;;;;;20.44;28.61;100347.88;4387336;29;20029;-66
2023/11/26 01:31:12;;;;;;;2.45;2.00;;;;;;;20.44;28.25;100342.16;4403671;29;20048;-66
2023/11/26 01:33:23;;;;;;;3.10;2.20;;;;;;;20.45;28.51;100345.84;4388454;29;20056;-66
2023/11/26 01:35:34;;;;;;;2.20;2.00;;;;;;;20.45;28.33;100343.00;4403634;29;20043;-66
2023/11/26 01:37:44;;;;;;;2.00;1.80;;;;;;;20.44;28.49;100347.03;4404204;29;20049;-66
2023/11/26 01:39:55;;;;;;;2.00;1.58;;;;;;;20.43;28.39;100346.22;4391578;29;20411;-66
2023/11/26 01:42:05;;;;;;;2.85;1.60;;;;;;;20.44;28.22;100341.31;4405323;29;20072;-66
2023/11/26 01:44:16;;;;;;;2.45;1.60;;;;;;;20.43;28.52;100345.38;4404719;29;20072;-66
2023/11/26 01:46:27;;;;;;;1.60;1.50;;;;;;;20.43;28.52;100339.66;4405010;29;20049;-66
2023/11/26 01:48:39;;;;;;;2.20;1.77;;;;;;;20.43;28.44;100348.25;4405202;29;20033;-66
2023/11/26 01:50:49;;;;;;;2.17;1.60;;;;;;;20.42;28.39;100350.28;4387762;29;20691;-66
2023/11/26 01:53:00;;;;;;;2.13;1.80;;;;;;;20.42;28.37;100352.34;4405069;29;20063;-66
2023/11/26 01:55:11;;;;;;;1.90;1.70;;;;;;;20.43;28.26;100351.13;4405197;29;20102;-66
2023/11/26 01:57:21;;;;;;;1.70;1.60;;;;;;;20.42;28.58;100355.19;4387593;29;20085;-66
2023/11/26 01:59:32;;;;;;;1.77;1.67;;;;;;;20.42;28.63;100349.47;4388435;29;20041;-66
2023/11/26 02:01:42;;;;;;;1.60;1.50;;;;;;;20.41;28.24;100357.22;4387633;29;20060;-66
2023/11/26 02:03:53;;;;;;;2.10;1.88;;;;;;;20.41;28.55;100357.22;4405191;29;20040;-66
2023/11/26 02:06:04;;;;;;;1.70;1.60;;;;;;;20.41;28.37;100356.38;4387914;29;20051;-66
2023/11/26 02:08:15;;;;;;;1.70;1.60;;;;;;;20.41;28.33;100360.09;4402907;29;20049;-66
2023/11/26 02:10:26;;;;;;;1.90;1.80;;;;;;;20.41;28.62;100359.25;4405139;29;20040;-66
2023/11/26 02:12:37;;;;;;;2.00;1.80;;;;;;;20.41;28.48;100365.00;4389057;29;20041;-66
2023/11/26 02:14:49;;;;;;;2.03;1.60;;;;;;;20.40;28.76;100369.91;4403053;29;20041;-66
2023/11/26 02:17:00;;;;;;;3.08;1.70;;;;;;;20.42;28.81;100372.41;4404610;29;20657;-66
2023/11/26 02:19:32;;;;;;;1.90;1.70;;;;;;;20.41;28.62;100362.13;4389133;29;20113;-66
2023/11/26 02:21:42;;;;;;;1.80;1.60;;;;;;;20.41;28.84;100370.72;4387490;29;20091;-66
2023/11/26 02:23:53;;;;;;;1.95;1.70;;;;;;;20.41;28.65;100377.28;4403599;29;20125;-66
2023/11/26 02:26:10;;;;;;;1.88;1.50;;;;;;;20.41;28.80;100371.56;4404857;29;20041;-66
2023/11/26 02:28:21;;;;;;;1.65;1.55;;;;;;;20.39;28.54;100362.50;4388429;29;20037;-66
2023/11/26 02:30:32;;;;;;;2.00;1.80;;;;;;;20.41;28.79;100374.44;4388277;29;20522;-66
2023/11/26 02:32:43;;;;;;;1.80;1.70;;;;;;;20.41;28.66;100370.72;4388061;29;20072;-67
2023/11/26 02:34:53;;;;;;;2.20;1.80;;;;;;;20.41;28.82;100376.44;4404343;29;20128;-66
2023/11/26 02:37:04;;;;;;;2.25;2.00;;;;;;;20.40;28.72;100369.06;4404566;29;20052;-66
2023/11/26 02:39:14;;;;;;;2.63;2.08;;;;;;;20.41;28.68;100365.00;4388474;29;20122;-66
2023/11/26 02:41:25;;;;;;;2.25;2.05;;;;;;;20.41;28.94;100371.56;4402311;29;20076;-66
2023/11/26 02:43:35;;;;;;;2.00;1.80;;;;;;;20.40;28.73;100363.34;4403685;29;20052;-66
2023/11/26 02:45:46;;;;;;;2.05;1.85;;;;;;;20.40;28.71;100357.59;4388518;29;20156;-66
2023/11/26 02:47:56;;;;;;;2.15;1.80;;;;;;;20.39;29.19;100355.94;4404511;29;20076;-66
2023/11/26 02:50:08;;;;;;;2.00;1.80;;;;;;;20.40;28.93;100357.59;4388202;29;20402;-66
2023/11/26 02:52:19;;;;;;;2.92;2.30;;;;;;;20.39;28.78;100359.63;4387137;29;20463;-67
2023/11/26 02:54:31;;;;;;;2.38;2.03;;;;;;;20.39;28.92;100358.81;4402992;29;20073;-67
2023/11/26 02:56:44;;;;;;;2.88;2.30;;;;;;;20.40;29.06;100364.19;4388733;29;20522;-67
2023/11/26 02:58:55;;;;;;;2.90;2.13;;;;;;;20.40;29.04;100357.59;4403282;29;20043;-67
2023/11/26 03:01:05;;;;;;;2.80;2.10;;;;;;;20.38;28.97;100352.25;4387395;29;20537;-67
2023/11/26 03:03:15;;;;;;;2.83;2.20;;;;;;;20.40;28.88;100357.59;4403776;29;20043;-67
2023/11/26 03:05:26;;;;;;;2.67;2.10;;;;;;;20.39;29.01;100353.91;4389220;29;20037;-67
2023/11/26 03:07:36;;;;;;;3.30;2.20;;;;;;;20.40;28.87;100349.00;4386608;29;20033;-67
2023/11/26 03:14:46;;;;;;;2.35;2.15;;;;;;;20.39;28.82;100333.81;4389510;29;20124;-66
2023/11/26 03:16:56;;;;;;;2.25;2.00;;;;;;;20.39;29.28;100328.09;4403513;29;20052;-67
2023/11/26 03:19:08;;;;;;;2.45;2.25;;;;;;;20.39;29.13;100324.41;4402781;29;20044;-67
2023/11/26 03:21:20;;;;;;;2.80;2.10;;;;;;;20.39;29.17;100327.28;4405208;29;20052;-67
2023/11/26 03:23:32;;;;;;;2.67;2.10;;;;;;;20.39;29.00;100338.75;4402173;29;20028;-66
2023/11/26 03:25:42;;;;;;;2.53;2.10;;;;;;;20.38;29.32;100339.94;4403833;29;20619;-66
2023/11/26 03:27:54;;;;;;;2.55;2.28;;;;;;;20.40;29.01;100346.13;4403908;29;20040;-67
2023/11/26 03:30:07;;;;;;;3.08;2.35;;;;;;;20.40;29.21;100349.00;4387541;29;20052;-66
2023/11/26 03:32:18;;;;;;;2.78;2.40;;;;;;;20.39;29.27;100353.09;4386360;29;20854;-66
2023/11/26 03:34:30;;;;;;;2.60;2.40;;;;;;;20.39;29.43;100350.22;4403063;29;20116;-66
2023/11/26 03:36:41;;;;;;;3.10;2.40;;;;;;;20.39;29.49;100353.09;4388405;29;20093;-67
2023/11/26 03:38:52;;;;;;;2.33;2.13;;;;;;;20.38;29.15;100355.09;4400970;29;20033;-67
2023/11/26 03:41:03;;;;;;;3.05;2.47;;;;;;;20.38;29.07;100354.28;4386441;29;20663;-67
2023/11/26 03:43:14;;;;;;;2.38;2.10;;;;;;;20.38;29.15;100352.25;4403829;29;20041;-67
2023/11/26 03:45:25;;;;;;;2.60;2.28;;;;;;;20.38;29.34;100360.00;4404006;29;20032;-67
2023/11/26 03:47:35;;;;;;;2.40;2.10;;;;;;;20.38;29.18;100357.13;4385213;29;20033;-67
2023/11/26 03:49:46;;;;;;;2.60;2.20;;;;;;;20.38;29.12;100371.47;4402789;29;20048;-67
2023/11/26 03:51:56;;;;;;;2.75;2.17;;;;;;;20.37;29.06;100361.22;4387727;29;20040;-67
2023/11/26 03:54:07;;;;;;;2.88;2.40;;;;;;;20.38;29.44;100365.72;4403933;29;20037;-67
2023/11/26 03:56:17;;;;;;;2.97;2.40;;;;;;;20.37;29.31;100366.94;4402190;29;20095;-67
2023/11/26 03:58:27;;;;;;;2.35;2.13;;;;;;;20.37;29.04;100369.81;4403370;29;20047;-67
2023/11/26 04:00:38;;;;;;;2.35;2.15;;;;;;;20.37;29.40;100367.78;4404113;29;22555;-67
2023/11/26 04:02:48;;;;;;;2.20;2.00;;;;;;;20.37;28.95;100370.66;4404705;29;20060;-66
2023/11/26 04:04:59;;;;;;;2.08;1.88;;;;;;;20.36;29.34;100374.69;4388398;29;20049;-66
2023/11/26 04:07:09;;;;;;;3.13;2.38;;;;;;;20.37;29.11;100376.38;4401869;29;20093;-66
2023/11/26 04:09:20;;;;;;;2.20;1.98;;;;;;;20.38;28.80;100377.19;4388012;29;20044;-66
2023/11/26 04:11:30;;;;;;;2.30;2.08;;;;;;;20.37;29.28;100381.28;4386828;29;20124;-66
2023/11/26 04:13:41;;;;;;;3.05;2.30;;;;;;;20.36;28.89;100371.03;4403019;29;20029;-66
2023/11/26 04:15:57;;;;;;;2.50;2.30;;;;;;;20.37;28.94;100375.53;4402741;29;20049;-66
2023/11/26 04:18:07;;;;;;;2.63;2.10;;;;;;;20.36;29.00;100368.16;4402433;29;20033;-66
2023/11/26 04:20:18;;;;;;;2.28;2.00;;;;;;;20.36;28.89;100371.03;4403609;29;25996;-67
2023/11/26 04:22:28;;;;;;;2.45;2.03;;;;;;;20.36;28.88;100366.09;4385736;29;20049;-67
2023/11/26 04:24:41;;;;;;;2.20;2.00;;;;;;;20.36;29.14;100360.38;4406407;29;20080;-67
2023/11/26 04:26:52;;;;;;;2.00;1.90;;;;;;;20.36;29.20;100362.44;4388713;29;20913;-67
2023/11/26 04:29:02;;;;;;;2.25;2.05;;;;;;;20.36;28.97;100359.56;4389269;29;20048;-67
2023/11/26 04:31:12;;;;;;;2.65;2.13;;;;;;;20.36;28.95;100368.16;4406159;29;20040;-67
2023/11/26 04:33:23;;;;;;;2.25;2.05;;;;;;;20.36;29.29;100366.09;4406638;29;20044;-67
2023/11/26 04:35:34;;;;;;;2.20;2.00;;;;;;;20.36;29.03;100365.28;4390767;29;20078;-67
2023/11/26 04:37:44;;;;;;;2.55;2.08;;;;;;;20.35;28.94;100366.47;4405908;29;20041;-67
2023/11/26 04:39:55;;;;;;;2.72;2.20;;;;;;;20.36;29.04;100379.63;4406122;29;20501;-67
2023/11/26 04:42:05;;;;;;;2.47;2.17;;;;;;;20.36;28.91;100373.91;4405606;29;20055;-67
2023/11/26 04:44:16;;;;;;;2.20;2.00;;;;;;;20.35;29.30;100370.19;4405559;29;20044;-67
2023/11/26 04:46:27;;;;;;;2.60;2.17;;;;;;;20.36;29.42;100365.28;4406114;29;20101;-67
2023/11/26 04:48:38;;;;;;;2.50;2.30;;;;;;;20.36;28.81;100368.16;4405545;29;20055;-67
2023/11/26 04:50:49;;;;;;;2.60;2.20;;;;;;;20.36;29.08;100365.28;4406066;29;20045;-67
2023/11/26 04:53:00;;;;;;;3.00;2.50;;;;;;;20.37;28.88;100369.81;4405965;29;20032;-66
2023/11/26 04:55:12;;;;;;;2.67;2.47;;;;;;;20.37;28.89;100364.91;4389389;29;20581;-66
2023/11/26 04:57:23;;;;;;;2.80;2.40;;;;;;;20.35;28.87;100355.84;4405475;29;20032;-66
2023/11/26 04:59:35;;;;;;;2.65;2.40;;;;;;;20.36;29.29;100363.25;4406444;29;21125;-66
2023/11/26 05:01:48;;;;;;;3.15;2.85;;;;;;;20.36;29.27;100368.97;4405667;29;20040;-66
2023/11/26 05:03:59;;;;;;;2.80;2.60;;;;;;;20.36;28.94;100360.38;4406214;29;20045;-66
2023/11/26 05:06:11;;;;;;;3.50;2.90;;;;;;;20.36;29.02;100368.16;4406848;29;20037;-67
2023/11/26 05:08:21;;;;;;;3.28;2.95;;;;;;;20.34;29.38;100365.63;4403434;29;20105;-66
2023/11/26 05:10:31;;;;;;;3.10;2.80;;;;;;;20.34;29.25;100361.97;4407713;29;20110;-67
2023/11/26 05:12:43;;;;;;;3.58;3.28;;;;;;;20.33;29.16;100358.25;4388889;29;20231;-67
2023/11/26 05:14:53;;;;;;;3.55;3.25;;;;;;;20.34;29.14;100356.22;4405841;29;20040;-67
2023/11/26 05:17:04;;;;;;;4.25;3.50;;;;;;;20.34;29.14;100356.22;4404053;29;20533;-67
2023/11/26 05:19:15;;;;;;;3.90;3.50;;;;;;;20.34;28.91;100361.97;4406624;29;20049;-66
2023/11/26 05:21:25;;;;;;;0.85;0.50;;;;;;;21.11;41.38;100360.13;4405975;29;20044;-67
2023/11/26 05:23:36;;;;;;;3.28;2.97;;;;;;;20.55;29.67;100365.38;4405596;29;20782;-67
2023/11/26 05:25:46;;;;;;;4.00;3.38;;;;;;;20.44;29.16;100358.50;4405021;29;20060;-66
2023/11/26 05:27:57;;;;;;;4.00;3.60;;;;;;;20.40;29.17;100366.19;4404800;29;20072;-66
2023/11/26 05:30:09;;;;;;;3.42;3.13;;;;;;;20.37;29.13;100369.81;4404743;29;20051;-66
2023/11/26 05:32:19;;;;;;;3.70;3.35;;;;;;;20.37;28.84;100364.09;4405657;29;20050;-67
2023/11/26 05:34:29;;;;;;;3.80;3.40;;;;;;;20.35;29.07;100361.59;4404920;29;20414;-67
2023/11/26 05:36:40;;;;;;;3.83;3.42;;;;;;;20.36;28.88;100371.03;4404133;29;20051;-67
2023/11/26 05:38:51;;;;;;;4.00;3.58;;;;;;;20.35;29.42;100370.19;4404727;29;20402;-67
2023/11/26 05:41:01;;;;;;;4.10;3.70;;;;;;;20.33;29.30;100366.84;4403983;29;20045;-67
2023/11/26 05:43:12;;;;;;;1.52;0.68;;;;;;;21.11;41.48;100372.44;4404086;29;20037;-67
2023/11/26 05:45:22;;;;;;;0.60;0.50;;;;;;;21.42;41.09;100375.16;4405282;29;20064;-67
2023/11/26 05:47:32;;;;;;;0.98;0.50;;;;;;;21.63;40.68;100375.59;4404601;29;20320;-66
2023/11/26 05:49:43;;;;;;;0.60;0.60;;;;;;;21.75;40.62;100375.47;4404229;29;20423;-66
2023/11/26 05:51:56;;;;;;;0.88;0.60;;;;;;;21.83;40.53;100377.28;4404832;29;20079;-67
2023/11/26 05:54:06;;;;;;;1.48;1.20;;;;;;;21.16;32.46;100377.03;4404904;29;20140;-67
2023/11/26 05:56:17;;;;;;;3.95;3.10;;;;;;;20.69;30.97;100371.44;4404138;29;20608;-67
2023/11/26 05:58:27;;;;;;;3.70;3.40;;;;;;;20.57;29.97;100371.53;4404003;29;20072;-67
2023/11/26 06:00:38;;;;;;;3.78;3.30;;;;;;;20.51;29.28;100375.91;4405011;29;20044;-66
2023/11/26 06:02:50;;;;;;;4.68;3.50;;;;;;;20.46;29.42;100367.56;4404863;29;20036;-66
2023/11/26 06:05:01;;;;;;;4.07;3.70;;;;;;;20.44;29.22;100378.56;4405064;29;20041;-66
2023/11/26 06:07:11;;;;;;;3.50;3.20;;;;;;;20.42;29.05;100372.41;4405471;29;20453;-67
2023/11/26 06:09:22;;;;;;;4.20;3.28;;;;;;;20.40;29.35;100369.06;4406376;29;20064;-66
2023/11/26 06:11:32;;;;;;;3.88;3.50;;;;;;;20.39;29.49;100367.41;4404245;29;20043;-66
2023/11/26 06:13:42;;;;;;;4.07;3.58;;;;;;;20.38;29.18;100366.56;4404382;29;21198;-66
2023/11/26 06:15:53;;;;;;;3.85;3.45;;;;;;;20.37;29.68;100372.69;4389436;29;20455;-66
2023/11/26 06:18:03;;;;;;;3.83;3.45;;;;;;;20.36;29.51;100368.97;4405279;29;20044;-66
2023/11/26 06:20:14;;;;;;;3.90;3.50;;;;;;;20.36;29.17;100368.16;4404203;29;20051;-66
2023/11/26 06:22:24;;;;;;;3.58;3.28;;;;;;;20.35;29.50;100364.47;4405346;29;20056;-66
2023/11/26 06:24:34;;;;;;;3.70;3.30;;;;;;;20.35;29.42;100361.59;4404890;29;20536;-66
2023/11/26 06:26:45;;;;;;;3.75;3.35;;;;;;;20.34;29.55;100357.03;4404415;29;20040;-66
2023/11/26 06:28:57;;;;;;;3.92;3.40;;;;;;;20.35;29.55;100360.75;4404362;29;20032;-66
2023/11/26 06:31:08;;;;;;;4.30;3.58;;;;;;;20.36;29.61;100362.44;4404846;29;20040;-66
2023/11/26 06:33:18;;;;;;;3.50;3.20;;;;;;;20.35;29.54;100360.75;4404838;29;20510;-67
2023/11/26 06:35:28;;;;;;;3.63;3.22;;;;;;;20.34;29.48;100357.03;4405124;29;20048;-67
2023/11/26 06:37:39;;;;;;;4.18;3.55;;;;;;;20.34;29.39;100359.91;4404303;29;20051;-66
2023/11/26 06:39:49;;;;;;;3.80;3.38;;;;;;;20.34;29.26;100357.03;4403717;29;20045;-66
2023/11/26 06:42:00;;;;;;;3.85;3.30;;;;;;;20.34;29.43;100361.97;4404207;29;20045;-67
2023/11/26 06:44:10;;;;;;;3.53;3.17;;;;;;;20.33;29.39;100363.97;4405014;29;20132;-67
2023/11/26 06:46:22;;;;;;;3.53;3.22;;;;;;;20.33;29.47;100357.41;4387579;29;20045;-66
2023/11/26 06:48:33;;;;;;;3.90;3.25;;;;;;;20.33;29.28;100363.13;4404059;29;20052;-66
2023/11/26 06:50:44;;;;;;;3.53;3.00;;;;;;;20.33;29.21;100357.41;4404952;29;20049;-66
2023/11/26 06:52:54;;;;;;;3.83;3.28;;;;;;;20.33;29.40;100351.69;4388619;29;20036;-66
2023/11/26 06:55:05;;;;;;;3.88;3.47;;;;;;;20.32;29.61;100355.75;4387705;29;20044;-67
2023/11/26 06:57:15;;;;;;;3.97;3.55;;;;;;;20.33;29.39;100351.69;4403494;29;20976;-67
2023/11/26 06:59:26;;;;;;;4.55;3.97;;;;;;;20.32;29.72;100350.03;4404175;29;20254;-66
2023/11/26 07:01:36;;;;;;;4.18;3.78;;;;;;;20.31;29.54;100348.38;4402212;29;20116;-66
2023/11/26 07:03:48;;;;;;;4.10;3.70;;;;;;;20.33;29.47;100351.69;4404048;29;20044;-66
2023/11/26 07:06:04;;;;;;;4.53;4.10;;;;;;;20.33;29.79;100345.94;4404140;29;20929;-66
2023/11/26 07:08:15;;;;;;;4.22;3.78;;;;;;;20.33;29.63;100348.81;4404656;29;20045;-66
2023/11/26 07:10:26;;;;;;;5.07;4.22;;;;;;;20.32;29.82;100350.88;4403933;29;20530;-66
2023/11/26 07:12:36;;;;;;;4.32;3.83;;;;;;;20.32;29.85;100344.28;4403429;29;20051;-66
2023/11/26 07:14:46;;;;;;;4.30;3.80;;;;;;;20.31;29.62;100348.38;4403635;29;20052;-67
2023/11/26 07:16:57;;;;;;;4.70;4.28;;;;;;;20.31;29.32;100349.19;4386392;29;20077;-66
2023/11/26 07:19:07;;;;;;;4.13;3.72;;;;;;;20.29;29.41;100350.78;4387837;29;20047;-66
2023/11/26 07:21:19;;;;;;;3.85;3.45;;;;;;;20.31;29.48;100348.38;4403412;29;20033;-66
2023/11/26 07:23:30;;;;;;;4.07;3.65;;;;;;;20.29;29.58;100339.31;4403315;29;20511;-66
2023/11/26 07:25:40;;;;;;;4.03;3.60;;;;;;;20.31;29.67;100342.63;4402832;29;20401;-66
2023/11/26 07:27:51;;;;;;;4.50;3.95;;;;;;;20.30;29.89;100340.97;4402743;29;20047;-66
2023/11/26 07:30:02;;;;;;;4.03;3.60;;;;;;;20.29;29.80;100353.63;4403836;29;20067;-66
2023/11/26 07:32:12;;;;;;;4.13;3.50;;;;;;;20.29;29.81;100337.28;4403801;29;20166;-67
2023/11/26 07:34:23;;;;;;;3.80;3.35;;;;;;;20.29;29.92;100347.91;4402507;29;20076;-67
2023/11/26 07:36:33;;;;;;;3.85;3.40;;;;;;;20.31;29.88;100345.50;4402468;29;20036;-66
2023/11/26 07:38:43;;;;;;;4.70;3.40;;;;;;;20.29;30.21;100345.03;4403942;29;20075;-66
2023/11/26 07:40:55;;;;;;;4.65;3.70;;;;;;;20.28;30.24;100334.78;4385346;29;20144;-66
2023/11/26 07:43:07;;;;;;;4.80;4.07;;;;;;;20.24;30.31;100337.56;4386543;29;20536;-66
2023/11/26 07:45:17;;;;;;;5.63;4.25;;;;;;;20.22;30.59;100334.22;4402739;29;20049;-66
2023/11/26 07:47:27;;;;;;;4.00;3.50;;;;;;;20.21;30.79;100337.47;4402464;29;20033;-66
2023/11/26 07:49:38;;;;;;;3.85;3.15;;;;;;;20.22;30.52;100334.22;4404033;29;20069;-67
2023/11/26 07:51:49;;;;;;;4.43;3.10;;;;;;;20.20;30.85;100341.53;4402856;29;20470;-66
2023/11/26 07:53:59;;;;;;;4.60;3.20;;;;;;;20.20;30.88;100336.63;4402882;29;20048;-66
2023/11/26 07:56:10;;;;;;;3.97;3.20;;;;;;;20.20;30.83;100330.09;4388881;29;20414;-66
2023/11/26 07:58:22;;;;;;;3.83;3.20;;;;;;;20.21;30.78;100337.47;4404428;29;20124;-66
2023/11/26 08:00:34;;;;;;;4.03;2.92;;;;;;;20.20;30.64;100336.63;4406279;29;20885;-66
2023/11/26 08:02:47;;;;;;;3.88;3.10;;;;;;;20.22;30.64;100333.38;4406681;29;20059;-66
2023/11/26 08:04:58;;;;;;;3.20;2.47;;;;;;;20.20;30.84;100324.34;4406479;29;20063;-66
2023/11/26 08:07:08;;;;;;;4.00;2.80;;;;;;;20.20;30.78;100321.47;4406441;29;20084;-66
2023/11/26 08:09:20;;;;;;;3.75;2.88;;;;;;;20.20;30.95;100324.34;4405284;29;20044;-66
2023/11/26 08:11:34;;;;;;;3.25;2.65;;;;;;;20.21;30.75;100326.84;4406503;29;20076;-66
2023/11/26 08:13:44;;;;;;;3.75;2.90;;;;;;;20.20;30.89;100332.94;4405285;29;20040;-66
2023/11/26 08:15:57;;;;;;;4.68;2.83;;;;;;;20.20;30.75;100324.34;4405992;29;20438;-66
2023/11/26 08:18:08;;;;;;;3.78;2.80;;;;;;;20.20;30.80;100318.63;4405328;29;20044;-66
2023/11/26 08:20:20;;;;;;;3.75;2.97;;;;;;;20.20;30.83;100322.28;4390062;29;20442;-66
2023/11/26 08:22:31;;;;;;;3.38;2.80;;;;;;;20.20;31.20;100319.44;4405696;29;20088;-66
2023/11/26 08:24:45;;;;;;;3.28;2.55;;;;;;;20.21;31.02;100323.13;4405857;29;20111;-66
2023/11/26 08:26:56;;;;;;;4.95;2.85;;;;;;;20.22;31.43;100327.66;4406565;29;20040;-66
2023/11/26 08:29:09;;;;;;;4.10;2.70;;;;;;;20.22;31.31;100321.91;4390663;29;20051;-66
2023/11/26 08:31:23;;;;;;;3.25;2.58;;;;;;;20.22;31.04;100319.06;4406282;29;20036;-66
2023/11/26 08:33:41;;;;;;;3.28;2.50;;;;;;;20.21;31.09;100315.38;4407831;29;20908;-67
2023/11/26 08:35:57;;;;;;;3.63;2.58;;;;;;;20.23;31.55;100317.88;4407319;29;20620;-67
2023/11/26 08:38:08;;;;;;;4.50;3.27;;;;;;;20.20;31.15;100325.16;4389656;29;20051;-67
2023/11/26 08:40:19;;;;;;;3.65;2.40;;;;;;;20.22;31.09;100333.38;4405943;29;20784;-67
2023/11/26 08:42:32;;;;;;;3.97;2.85;;;;;;;20.21;31.08;100326.84;4407416;29;20048;-67
2023/11/26 08:44:45;;;;;;;3.45;2.40;;;;;;;20.23;31.34;100323.59;4405029;29;20588;-67
2023/11/26 08:46:56;;;;;;;4.00;2.55;;;;;;;20.23;31.09;100326.47;4405095;29;20032;-67
2023/11/26 08:49:08;;;;;;;4.32;2.53;;;;;;;20.22;31.49;100321.91;4404843;29;20115;-67
2023/11/26 08:51:19;;;;;;;4.22;2.70;;;;;;;20.24;31.69;100325.25;4406408;29;20641;-67
2023/11/26 08:53:31;;;;;;;3.30;2.58;;;;;;;20.25;31.38;100321.19;4389717;29;20032;-66
2023/11/26 08:55:41;;;;;;;3.85;2.60;;;;;;;20.24;31.11;100319.53;4405950;29;21552;-66
2023/11/26 08:57:52;;;;;;;3.92;2.75;;;;;;;20.25;31.33;100321.19;4405615;29;20123;-66
2023/11/26 09:00:02;;;;;;;3.88;2.78;;;;;;;20.23;31.24;100318.69;4405259;29;20049;-66
2023/11/26 09:02:13;;;;;;;3.58;2.50;;;;;;;20.26;31.75;100311.41;4405704;29;20569;-67
2023/11/26 09:04:23;;;;;;;3.67;2.60;;;;;;;20.25;31.67;100324.03;4407193;29;20040;-67
2023/11/26 09:06:34;;;;;;;3.70;2.58;;;;;;;20.34;31.48;100328.38;4404744;29;20874;-67
2023/11/26 09:08:50;;;;;;;3.78;2.50;;;;;;;20.35;31.41;100326.34;4405234;29;20049;-67
2023/11/26 09:11:00;;;;;;;3.33;2.20;;;;;;;20.36;31.36;100325.97;4390362;29;20144;-67
2023/11/26 09:13:12;;;;;;;4.78;2.65;;;;;;;20.37;31.47;100329.69;4389356;29;20529;-67
2023/11/26 09:15:26;;;;;;;3.13;2.20;;;;;;;20.38;31.46;100331.34;4403297;29;20048;-67
2023/11/26 09:17:38;;;;;;;4.15;2.45;;;;;;;20.38;31.30;100325.59;4404428;29;20132;-67
2023/11/26 09:19:48;;;;;;;3.30;2.38;;;;;;;20.36;31.38;100328.84;4405430;29;20559;-67
2023/11/26 09:22:02;;;;;;;3.47;2.30;;;;;;;20.35;31.68;100332.94;4406534;29;20071;-67
2023/11/26 09:24:12;;;;;;;3.28;2.20;;;;;;;20.35;31.54;100326.34;4388301;29;20175;-67
2023/11/26 09:26:23;;;;;;;4.28;2.70;;;;;;;20.35;31.73;100327.19;4404073;29;20175;-68
2023/11/26 09:28:34;;;;;;;3.30;2.53;;;;;;;20.36;31.82;100322.31;4404429;29;20052;-67
2023/11/26 09:30:44;;;;;;;3.85;2.55;;;;;;;20.35;31.60;100326.34;4406663;29;20506;-67
2023/11/26 09:32:54;;;;;;;3.60;2.38;;;;;;;20.33;31.46;100320.16;4405502;29;20423;-67
2023/11/26 09:35:06;;;;;;;3.88;2.55;;;;;;;20.35;31.84;100326.34;4405011;29;20112;-67
2023/11/26 09:37:16;;;;;;;3.50;2.45;;;;;;;20.33;31.84;100329.59;4404109;29;20041;-67
2023/11/26 09:39:27;;;;;;;3.20;2.33;;;;;;;20.35;31.58;100326.34;4405172;29;20044;-67
2023/11/26 09:41:38;;;;;;;3.53;2.70;;;;;;;20.35;31.83;100326.34;4404914;29;20120;-67
2023/11/26 09:43:48;;;;;;;4.32;2.67;;;;;;;20.35;31.87;100327.19;4404834;29;20631;-67
2023/11/26 09:45:59;;;;;;;3.30;2.40;;;;;;;20.36;31.84;100322.31;4390461;29;20125;-67
2023/11/26 09:48:11;;;;;;;4.20;2.50;;;;;;;20.34;32.04;100325.50;4403730;29;20036;-67
2023/11/26 09:50:22;;;;;;;3.90;2.58;;;;;;;20.35;32.00;100326.34;4405455;29;20032;-67
2023/11/26 09:52:33;;;;;;;3.40;2.35;;;;;;;20.35;31.75;100321.47;4404152;29;20052;-67
2023/11/26 09:54:44;;;;;;;3.33;2.35;;;;;;;20.36;31.76;100328.03;4405169;29;20048;-67
2023/11/26 09:56:55;;;;;;;4.07;2.90;;;;;;;20.36;31.94;100328.03;4403811;29;20036;-67
2023/11/26 09:59:22;;;;;;;3.63;2.65;;;;;;;20.36;31.94;100319.44;4404756;29;20907;-66
2023/11/26 10:01:33;;;;;;;3.10;2.33;;;;;;;20.36;31.82;100320.25;4403062;29;20048;-66
2023/11/26 10:03:57;;;;;;;3.03;2.50;;;;;;;20.37;31.85;100318.22;4404872;29;20044;-66
2023/11/26 10:06:10;;;;;;;4.45;3.08;;;;;;;20.37;32.03;100312.47;4404514;29;20049;-67
2023/11/26 10:08:28;;;;;;;4.25;2.80;;;;;;;20.38;32.25;100308.41;4404250;29;21271;-67
2023/11/26 10:10:49;;;;;;;4.38;2.60;;;;;;;20.39;31.92;100315.81;4406310;29;20592;-67
2023/11/26 10:13:04;;;;;;;4.00;2.97;;;;;;;20.38;32.44;100311.28;4405008;29;20120;-67
2023/11/26 10:15:14;;;;;;;3.33;2.50;;;;;;;20.38;32.22;100309.25;4404141;29;20145;-67